sensor_id;sensor_type;location;lat;lon;timestamp;P1;durP1;ratioP1;P2;durP2;ratioP2
52494;SDS011;38405;53.212;5.660;2022-12-07T00:01:10;12.05;;;1.42;;
52494;SDS011;38405;53.212;5.660;2022-12-07T00:03:36;17.63;;;1.92;;
52494;SDS011;38405;53.212;5.660;2022-12-07T00:06:03;16.35;;;1.80;;
52494;SDS011;38405;53.212;5.660;2022-12-07T00:08:30;13.57;;;1.98;;
52494;SDS011;38405;53.212;5.660;2022-12-07T00:13:29;16.73;;;2.17;;
52494;SDS011;38405;53.212;5.660;2022-12-07T00:15:55;10.05;;;1.77;;
52494;SDS011;38405;53.212;5.660;2022-12-07T00:18:24;21.08;;;1.83;;
52494;SDS011;38405;53.212;5.660;2022-12-07T00:20:50;12.13;;;1.92;;
52494;SDS011;38405;53.212;5.660;2022-12-07T00:23:15;11.20;;;1.60;;
52494;SDS011;38405;53.212;5.660;2022-12-07T00:25:41;5.90;;;1.40;;
52494;SDS011;38405;53.212;5.660;2022-12-07T00:28:06;5.82;;;1.23;;
52494;SDS011;38405;53.212;5.660;2022-12-07T00:30:34;3.08;;;0.73;;
52494;SDS011;38405;53.212;5.660;2022-12-07T00:33:00;6.10;;;0.80;;
52494;SDS011;38405;53.212;5.660;2022-12-07T00:35:25;5.57;;;0.90;;
52494;SDS011;38405;53.212;5.660;2022-12-07T00:37:51;6.07;;;1.02;;
52494;SDS011;38405;53.212;5.660;2022-12-07T00:40:16;6.63;;;1.10;;
52494;SDS011;38405;53.212;5.660;2022-12-07T00:42:42;5.18;;;0.82;;
52494;SDS011;38405;53.212;5.660;2022-12-07T00:45:08;4.50;;;0.70;;
52494;SDS011;38405;53.212;5.660;2022-12-07T00:47:33;4.88;;;0.70;;
52494;SDS011;38405;53.212;5.660;2022-12-07T00:49:59;3.72;;;0.80;;
52494;SDS011;38405;53.212;5.660;2022-12-07T00:52:25;5.22;;;1.30;;
52494;SDS011;38405;53.212;5.660;2022-12-07T00:54:50;8.18;;;1.02;;
52494;SDS011;38405;53.212;5.660;2022-12-07T00:57:16;6.25;;;1.40;;
52494;SDS011;38405;53.212;5.660;2022-12-07T00:59:41;6.55;;;1.33;;
52494;SDS011;38405;53.212;5.660;2022-12-07T01:02:07;5.75;;;1.15;;
52494;SDS011;38405;53.212;5.660;2022-12-07T01:04:33;4.25;;;1.05;;
52494;SDS011;38405;53.212;5.660;2022-12-07T01:06:59;13.15;;;1.80;;
52494;SDS011;38405;53.212;5.660;2022-12-07T01:09:24;9.15;;;1.50;;
52494;SDS011;38405;53.212;5.660;2022-12-07T01:11:50;14.20;;;1.52;;
52494;SDS011;38405;53.212;5.660;2022-12-07T01:14:16;6.82;;;1.30;;
52494;SDS011;38405;53.212;5.660;2022-12-07T01:16:43;15.00;;;2.00;;
52494;SDS011;38405;53.212;5.660;2022-12-07T01:19:08;7.57;;;1.13;;
52494;SDS011;38405;53.212;5.660;2022-12-07T01:21:34;11.32;;;1.73;;
52494;SDS011;38405;53.212;5.660;2022-12-07T01:24:02;16.77;;;2.13;;
52494;SDS011;38405;53.212;5.660;2022-12-07T01:26:29;12.35;;;1.60;;
52494;SDS011;38405;53.212;5.660;2022-12-07T01:28:55;11.52;;;1.60;;
52494;SDS011;38405;53.212;5.660;2022-12-07T01:31:21;9.70;;;1.60;;
52494;SDS011;38405;53.212;5.660;2022-12-07T01:33:50;12.15;;;1.85;;
52494;SDS011;38405;53.212;5.660;2022-12-07T01:36:19;11.40;;;2.13;;
52494;SDS011;38405;53.212;5.660;2022-12-07T01:38:49;12.50;;;1.65;;
52494;SDS011;38405;53.212;5.660;2022-12-07T01:41:17;13.45;;;1.60;;
52494;SDS011;38405;53.212;5.660;2022-12-07T01:46:33;10.90;;;1.50;;
52494;SDS011;38405;53.212;5.660;2022-12-07T01:48:59;8.02;;;1.10;;
52494;SDS011;38405;53.212;5.660;2022-12-07T01:51:25;8.05;;;1.10;;
52494;SDS011;38405;53.212;5.660;2022-12-07T01:53:53;11.13;;;1.40;;
52494;SDS011;38405;53.212;5.660;2022-12-07T01:56:20;6.32;;;1.05;;
52494;SDS011;38405;53.212;5.660;2022-12-07T01:58:51;8.03;;;1.40;;
52494;SDS011;38405;53.212;5.660;2022-12-07T02:01:17;10.32;;;1.50;;
52494;SDS011;38405;53.212;5.660;2022-12-07T02:03:43;10.98;;;1.58;;
52494;SDS011;38405;53.212;5.660;2022-12-07T02:06:11;8.57;;;1.30;;
52494;SDS011;38405;53.212;5.660;2022-12-07T02:08:41;11.18;;;1.20;;
52494;SDS011;38405;53.212;5.660;2022-12-07T02:11:07;5.47;;;1.17;;
52494;SDS011;38405;53.212;5.660;2022-12-07T02:13:35;20.65;;;1.40;;
52494;SDS011;38405;53.212;5.660;2022-12-07T02:21:10;11.25;;;1.65;;
52494;SDS011;38405;53.212;5.660;2022-12-07T02:29:34;13.55;;;1.73;;
52494;SDS011;38405;53.212;5.660;2022-12-07T02:32:18;9.50;;;1.50;;
52494;SDS011;38405;53.212;5.660;2022-12-07T02:34:51;14.30;;;1.80;;
52494;SDS011;38405;53.212;5.660;2022-12-07T02:37:26;10.85;;;1.75;;
52494;SDS011;38405;53.212;5.660;2022-12-07T02:40:14;21.63;;;1.83;;
52494;SDS011;38405;53.212;5.660;2022-12-07T02:42:51;4.80;;;1.25;;
52494;SDS011;38405;53.212;5.660;2022-12-07T02:45:25;9.82;;;1.20;;
52494;SDS011;38405;53.212;5.660;2022-12-07T02:47:55;3.67;;;1.00;;
52494;SDS011;38405;53.212;5.660;2022-12-07T02:50:23;9.73;;;1.10;;
52494;SDS011;38405;53.212;5.660;2022-12-07T02:52:49;9.52;;;1.77;;
52494;SDS011;38405;53.212;5.660;2022-12-07T02:55:15;15.88;;;1.50;;
52494;SDS011;38405;53.212;5.660;2022-12-07T02:57:51;6.32;;;1.10;;
52494;SDS011;38405;53.212;5.660;2022-12-07T03:00:20;5.68;;;0.95;;
52494;SDS011;38405;53.212;5.660;2022-12-07T03:02:49;10.00;;;1.10;;
52494;SDS011;38405;53.212;5.660;2022-12-07T03:08:02;10.90;;;1.70;;
52494;SDS011;38405;53.212;5.660;2022-12-07T03:15:43;3.95;;;1.02;;
52494;SDS011;38405;53.212;5.660;2022-12-07T03:18:34;9.25;;;1.15;;
52494;SDS011;38405;53.212;5.660;2022-12-07T03:21:05;6.15;;;0.85;;
52494;SDS011;38405;53.212;5.660;2022-12-07T03:23:41;4.03;;;0.73;;
52494;SDS011;38405;53.212;5.660;2022-12-07T03:26:10;5.00;;;0.80;;
52494;SDS011;38405;53.212;5.660;2022-12-07T03:28:40;5.70;;;0.73;;
52494;SDS011;38405;53.212;5.660;2022-12-07T03:31:14;8.48;;;0.95;;
52494;SDS011;38405;53.212;5.660;2022-12-07T03:33:52;6.22;;;1.13;;
52494;SDS011;38405;53.212;5.660;2022-12-07T03:36:38;6.57;;;1.20;;
52494;SDS011;38405;53.212;5.660;2022-12-07T03:41:41;9.80;;;1.40;;
52494;SDS011;38405;53.212;5.660;2022-12-07T03:44:07;10.05;;;1.33;;
52494;SDS011;38405;53.212;5.660;2022-12-07T03:46:35;5.80;;;1.52;;
52494;SDS011;38405;53.212;5.660;2022-12-07T03:49:13;15.05;;;2.70;;
52494;SDS011;38405;53.212;5.660;2022-12-07T03:52:03;6.03;;;1.20;;
52494;SDS011;38405;53.212;5.660;2022-12-07T03:54:34;5.75;;;1.38;;
52494;SDS011;38405;53.212;5.660;2022-12-07T03:57:21;8.30;;;1.65;;
52494;SDS011;38405;53.212;5.660;2022-12-07T03:59:49;9.70;;;1.10;;
52494;SDS011;38405;53.212;5.660;2022-12-07T04:02:16;6.20;;;1.27;;
52494;SDS011;38405;53.212;5.660;2022-12-07T04:04:41;3.92;;;0.80;;
52494;SDS011;38405;53.212;5.660;2022-12-07T04:07:08;3.85;;;1.02;;
52494;SDS011;38405;53.212;5.660;2022-12-07T04:09:34;4.35;;;1.23;;
52494;SDS011;38405;53.212;5.660;2022-12-07T04:12:00;5.50;;;1.33;;
52494;SDS011;38405;53.212;5.660;2022-12-07T04:14:25;6.30;;;1.10;;
52494;SDS011;38405;53.212;5.660;2022-12-07T04:16:52;7.47;;;0.90;;
52494;SDS011;38405;53.212;5.660;2022-12-07T04:19:22;9.40;;;1.08;;
52494;SDS011;38405;53.212;5.660;2022-12-07T04:21:53;9.20;;;1.27;;
52494;SDS011;38405;53.212;5.660;2022-12-07T04:24:20;6.57;;;1.15;;
52494;SDS011;38405;53.212;5.660;2022-12-07T04:26:46;6.95;;;1.27;;
52494;SDS011;38405;53.212;5.660;2022-12-07T04:29:12;10.18;;;1.10;;
52494;SDS011;38405;53.212;5.660;2022-12-07T04:31:39;9.50;;;1.45;;
52494;SDS011;38405;53.212;5.660;2022-12-07T04:34:06;8.60;;;1.30;;
52494;SDS011;38405;53.212;5.660;2022-12-07T04:36:32;13.18;;;1.35;;
52494;SDS011;38405;53.212;5.660;2022-12-07T04:38:58;6.90;;;1.13;;
52494;SDS011;38405;53.212;5.660;2022-12-07T04:41:24;9.73;;;1.20;;
52494;SDS011;38405;53.212;5.660;2022-12-07T04:43:56;3.33;;;1.00;;
52494;SDS011;38405;53.212;5.660;2022-12-07T04:46:23;11.68;;;1.42;;
52494;SDS011;38405;53.212;5.660;2022-12-07T04:48:51;8.05;;;1.30;;
52494;SDS011;38405;53.212;5.660;2022-12-07T04:51:18;13.80;;;1.67;;
52494;SDS011;38405;53.212;5.660;2022-12-07T04:53:52;10.63;;;1.42;;
52494;SDS011;38405;53.212;5.660;2022-12-07T04:56:19;5.25;;;1.30;;
52494;SDS011;38405;53.212;5.660;2022-12-07T04:58:45;10.80;;;1.38;;
52494;SDS011;38405;53.212;5.660;2022-12-07T05:01:12;6.82;;;1.20;;
52494;SDS011;38405;53.212;5.660;2022-12-07T05:03:38;4.93;;;0.82;;
52494;SDS011;38405;53.212;5.660;2022-12-07T05:06:04;2.47;;;0.80;;
52494;SDS011;38405;53.212;5.660;2022-12-07T05:08:31;8.15;;;1.20;;
52494;SDS011;38405;53.212;5.660;2022-12-07T05:10:58;8.18;;;1.05;;
52494;SDS011;38405;53.212;5.660;2022-12-07T05:13:23;12.38;;;1.65;;
52494;SDS011;38405;53.212;5.660;2022-12-07T05:15:49;14.70;;;1.42;;
52494;SDS011;38405;53.212;5.660;2022-12-07T05:18:15;9.30;;;1.52;;
52494;SDS011;38405;53.212;5.660;2022-12-07T05:20:41;9.45;;;1.67;;
52494;SDS011;38405;53.212;5.660;2022-12-07T05:23:07;13.68;;;1.90;;
52494;SDS011;38405;53.212;5.660;2022-12-07T05:25:33;14.15;;;1.38;;
52494;SDS011;38405;53.212;5.660;2022-12-07T05:27:58;9.38;;;1.48;;
52494;SDS011;38405;53.212;5.660;2022-12-07T05:30:24;17.20;;;1.88;;
52494;SDS011;38405;53.212;5.660;2022-12-07T05:32:51;18.25;;;1.50;;
52494;SDS011;38405;53.212;5.660;2022-12-07T05:35:17;10.32;;;1.77;;
52494;SDS011;38405;53.212;5.660;2022-12-07T05:37:44;10.10;;;1.58;;
52494;SDS011;38405;53.212;5.660;2022-12-07T05:40:10;13.13;;;2.38;;
52494;SDS011;38405;53.212;5.660;2022-12-07T05:42:36;23.60;;;6.63;;
52494;SDS011;38405;53.212;5.660;2022-12-07T05:45:02;32.00;;;4.45;;
52494;SDS011;38405;53.212;5.660;2022-12-07T05:47:28;21.33;;;6.38;;
52494;SDS011;38405;53.212;5.660;2022-12-07T05:49:54;15.50;;;4.53;;
52494;SDS011;38405;53.212;5.660;2022-12-07T05:52:20;18.35;;;3.42;;
52494;SDS011;38405;53.212;5.660;2022-12-07T05:54:46;23.38;;;3.25;;
52494;SDS011;38405;53.212;5.660;2022-12-07T05:57:11;14.85;;;2.42;;
52494;SDS011;38405;53.212;5.660;2022-12-07T05:59:37;16.60;;;2.28;;
52494;SDS011;38405;53.212;5.660;2022-12-07T06:02:07;13.65;;;2.95;;
52494;SDS011;38405;53.212;5.660;2022-12-07T06:04:35;13.82;;;2.22;;
52494;SDS011;38405;53.212;5.660;2022-12-07T06:07:02;14.88;;;2.70;;
52494;SDS011;38405;53.212;5.660;2022-12-07T06:09:29;16.23;;;2.63;;
52494;SDS011;38405;53.212;5.660;2022-12-07T06:11:55;14.20;;;3.25;;
52494;SDS011;38405;53.212;5.660;2022-12-07T06:14:40;15.80;;;3.33;;
52494;SDS011;38405;53.212;5.660;2022-12-07T06:17:06;11.88;;;4.45;;
52494;SDS011;38405;53.212;5.660;2022-12-07T06:19:32;11.18;;;2.10;;
52494;SDS011;38405;53.212;5.660;2022-12-07T06:21:58;19.85;;;3.03;;
52494;SDS011;38405;53.212;5.660;2022-12-07T06:24:24;13.85;;;3.95;;
52494;SDS011;38405;53.212;5.660;2022-12-07T06:26:50;9.30;;;2.58;;
52494;SDS011;38405;53.212;5.660;2022-12-07T06:29:16;15.23;;;2.55;;
52494;SDS011;38405;53.212;5.660;2022-12-07T06:31:42;19.23;;;2.75;;
52494;SDS011;38405;53.212;5.660;2022-12-07T06:34:18;12.85;;;2.95;;
52494;SDS011;38405;53.212;5.660;2022-12-07T06:36:47;15.93;;;3.25;;
52494;SDS011;38405;53.212;5.660;2022-12-07T06:39:17;11.07;;;2.80;;
52494;SDS011;38405;53.212;5.660;2022-12-07T06:41:46;14.57;;;3.85;;
52494;SDS011;38405;53.212;5.660;2022-12-07T06:44:12;19.75;;;5.22;;
52494;SDS011;38405;53.212;5.660;2022-12-07T06:46:37;17.77;;;4.80;;
52494;SDS011;38405;53.212;5.660;2022-12-07T06:49:04;13.85;;;2.60;;
52494;SDS011;38405;53.212;5.660;2022-12-07T06:51:30;17.75;;;2.55;;
52494;SDS011;38405;53.212;5.660;2022-12-07T06:53:56;15.52;;;2.63;;
52494;SDS011;38405;53.212;5.660;2022-12-07T06:56:22;7.82;;;1.88;;
52494;SDS011;38405;53.212;5.660;2022-12-07T06:58:48;14.63;;;2.00;;
52494;SDS011;38405;53.212;5.660;2022-12-07T07:01:14;12.55;;;2.28;;
52494;SDS011;38405;53.212;5.660;2022-12-07T07:03:43;12.55;;;2.13;;
52494;SDS011;38405;53.212;5.660;2022-12-07T07:06:09;12.30;;;1.98;;
52494;SDS011;38405;53.212;5.660;2022-12-07T07:08:35;6.60;;;1.45;;
52494;SDS011;38405;53.212;5.660;2022-12-07T07:11:02;4.55;;;1.08;;
52494;SDS011;38405;53.212;5.660;2022-12-07T07:13:31;4.10;;;1.02;;
52494;SDS011;38405;53.212;5.660;2022-12-07T07:15:57;6.65;;;1.52;;
52494;SDS011;38405;53.212;5.660;2022-12-07T07:18:22;3.40;;;1.10;;
52494;SDS011;38405;53.212;5.660;2022-12-07T07:20:50;3.60;;;0.93;;
52494;SDS011;38405;53.212;5.660;2022-12-07T07:23:16;5.85;;;1.20;;
52494;SDS011;38405;53.212;5.660;2022-12-07T07:25:42;3.50;;;1.35;;
52494;SDS011;38405;53.212;5.660;2022-12-07T07:28:12;7.45;;;2.60;;
52494;SDS011;38405;53.212;5.660;2022-12-07T07:30:38;7.07;;;1.67;;
52494;SDS011;38405;53.212;5.660;2022-12-07T07:33:04;9.75;;;1.30;;
52494;SDS011;38405;53.212;5.660;2022-12-07T07:35:31;8.73;;;1.30;;
52494;SDS011;38405;53.212;5.660;2022-12-07T07:37:58;7.47;;;1.27;;
52494;SDS011;38405;53.212;5.660;2022-12-07T07:40:24;8.95;;;1.48;;
52494;SDS011;38405;53.212;5.660;2022-12-07T07:42:51;10.63;;;2.22;;
52494;SDS011;38405;53.212;5.660;2022-12-07T07:45:21;9.27;;;2.22;;
52494;SDS011;38405;53.212;5.660;2022-12-07T07:47:47;13.52;;;2.70;;
52494;SDS011;38405;53.212;5.660;2022-12-07T07:50:13;12.52;;;1.75;;
52494;SDS011;38405;53.212;5.660;2022-12-07T07:52:40;10.60;;;1.90;;
52494;SDS011;38405;53.212;5.660;2022-12-07T07:55:06;14.23;;;2.45;;
52494;SDS011;38405;53.212;5.660;2022-12-07T07:57:35;18.50;;;2.22;;
52494;SDS011;38405;53.212;5.660;2022-12-07T08:00:03;14.98;;;2.55;;
52494;SDS011;38405;53.212;5.660;2022-12-07T08:02:30;13.25;;;2.78;;
52494;SDS011;38405;53.212;5.660;2022-12-07T08:04:56;11.93;;;2.13;;
52494;SDS011;38405;53.212;5.660;2022-12-07T08:07:21;10.68;;;1.67;;
52494;SDS011;38405;53.212;5.660;2022-12-07T08:09:47;6.97;;;1.05;;
52494;SDS011;38405;53.212;5.660;2022-12-07T08:12:12;6.93;;;1.40;;
52494;SDS011;38405;53.212;5.660;2022-12-07T08:14:38;5.15;;;1.25;;
52494;SDS011;38405;53.212;5.660;2022-12-07T08:17:04;3.25;;;1.00;;
52494;SDS011;38405;53.212;5.660;2022-12-07T08:19:29;5.85;;;1.35;;
52494;SDS011;38405;53.212;5.660;2022-12-07T08:21:55;5.65;;;1.75;;
52494;SDS011;38405;53.212;5.660;2022-12-07T08:24:21;8.40;;;1.95;;
52494;SDS011;38405;53.212;5.660;2022-12-07T08:26:47;7.00;;;1.88;;
52494;SDS011;38405;53.212;5.660;2022-12-07T08:29:14;7.03;;;2.13;;
52494;SDS011;38405;53.212;5.660;2022-12-07T08:31:40;6.82;;;2.08;;
52494;SDS011;38405;53.212;5.660;2022-12-07T08:34:06;8.38;;;2.65;;
52494;SDS011;38405;53.212;5.660;2022-12-07T08:36:31;7.78;;;2.50;;
52494;SDS011;38405;53.212;5.660;2022-12-07T08:38:57;9.80;;;2.28;;
52494;SDS011;38405;53.212;5.660;2022-12-07T08:41:22;10.90;;;1.45;;
52494;SDS011;38405;53.212;5.660;2022-12-07T08:43:48;12.98;;;1.90;;
52494;SDS011;38405;53.212;5.660;2022-12-07T08:46:21;6.20;;;1.30;;
52494;SDS011;38405;53.212;5.660;2022-12-07T08:48:55;8.85;;;1.30;;
52494;SDS011;38405;53.212;5.660;2022-12-07T08:51:26;10.95;;;1.40;;
52494;SDS011;38405;53.212;5.660;2022-12-07T08:53:52;8.80;;;1.50;;
52494;SDS011;38405;53.212;5.660;2022-12-07T08:56:19;5.72;;;1.17;;
52494;SDS011;38405;53.212;5.660;2022-12-07T08:58:46;11.57;;;1.45;;
52494;SDS011;38405;53.212;5.660;2022-12-07T09:01:13;13.23;;;1.85;;
52494;SDS011;38405;53.212;5.660;2022-12-07T09:03:38;9.32;;;1.38;;
52494;SDS011;38405;53.212;5.660;2022-12-07T09:06:05;17.38;;;1.77;;
52494;SDS011;38405;53.212;5.660;2022-12-07T09:08:33;9.50;;;1.95;;
52494;SDS011;38405;53.212;5.660;2022-12-07T09:11:02;11.73;;;1.80;;
52494;SDS011;38405;53.212;5.660;2022-12-07T09:13:28;8.52;;;1.70;;
52494;SDS011;38405;53.212;5.660;2022-12-07T09:15:54;12.60;;;2.45;;
52494;SDS011;38405;53.212;5.660;2022-12-07T09:18:19;7.68;;;2.65;;
52494;SDS011;38405;53.212;5.660;2022-12-07T09:20:45;10.10;;;1.70;;
52494;SDS011;38405;53.212;5.660;2022-12-07T09:23:14;15.40;;;2.10;;
52494;SDS011;38405;53.212;5.660;2022-12-07T09:25:40;14.45;;;2.50;;
52494;SDS011;38405;53.212;5.660;2022-12-07T09:28:06;8.77;;;1.98;;
52494;SDS011;38405;53.212;5.660;2022-12-07T09:30:31;10.80;;;2.00;;
52494;SDS011;38405;53.212;5.660;2022-12-07T09:32:57;12.55;;;2.20;;
52494;SDS011;38405;53.212;5.660;2022-12-07T09:35:23;11.25;;;1.55;;
52494;SDS011;38405;53.212;5.660;2022-12-07T09:37:49;17.50;;;2.83;;
52494;SDS011;38405;53.212;5.660;2022-12-07T09:40:16;15.07;;;3.05;;
52494;SDS011;38405;53.212;5.660;2022-12-07T09:42:46;13.48;;;2.17;;
52494;SDS011;38405;53.212;5.660;2022-12-07T09:45:15;12.18;;;1.83;;
52494;SDS011;38405;53.212;5.660;2022-12-07T09:47:44;9.25;;;1.38;;
52494;SDS011;38405;53.212;5.660;2022-12-07T09:50:18;4.72;;;1.73;;
52494;SDS011;38405;53.212;5.660;2022-12-07T09:52:46;9.45;;;2.08;;
52494;SDS011;38405;53.212;5.660;2022-12-07T09:55:13;9.07;;;1.63;;
52494;SDS011;38405;53.212;5.660;2022-12-07T09:57:56;6.75;;;1.27;;
52494;SDS011;38405;53.212;5.660;2022-12-07T10:00:23;6.72;;;1.60;;
52494;SDS011;38405;53.212;5.660;2022-12-07T10:02:55;5.03;;;1.80;;
52494;SDS011;38405;53.212;5.660;2022-12-07T10:08:03;7.35;;;1.55;;
52494;SDS011;38405;53.212;5.660;2022-12-07T10:10:31;6.25;;;1.50;;
52494;SDS011;38405;53.212;5.660;2022-12-07T10:13:00;6.68;;;1.77;;
52494;SDS011;38405;53.212;5.660;2022-12-07T10:18:25;11.13;;;2.70;;
52494;SDS011;38405;53.212;5.660;2022-12-07T10:23:30;10.77;;;2.15;;
52494;SDS011;38405;53.212;5.660;2022-12-07T10:25:56;9.65;;;1.70;;
52494;SDS011;38405;53.212;5.660;2022-12-07T10:28:21;5.72;;;1.40;;
52494;SDS011;38405;53.212;5.660;2022-12-07T10:30:48;5.20;;;1.63;;
52494;SDS011;38405;53.212;5.660;2022-12-07T10:35:59;10.70;;;2.08;;
52494;SDS011;38405;53.212;5.660;2022-12-07T10:38:39;7.75;;;1.40;;
52494;SDS011;38405;53.212;5.660;2022-12-07T10:41:10;10.63;;;2.28;;
52494;SDS011;38405;53.212;5.660;2022-12-07T10:43:36;7.20;;;2.30;;
52494;SDS011;38405;53.212;5.660;2022-12-07T10:54:12;18.08;;;1.45;;
52494;SDS011;38405;53.212;5.660;2022-12-07T11:00:06;6.55;;;1.30;;
52494;SDS011;38405;53.212;5.660;2022-12-07T11:02:49;4.05;;;1.30;;
52494;SDS011;38405;53.212;5.660;2022-12-07T11:10:41;10.50;;;2.28;;
52494;SDS011;38405;53.212;5.660;2022-12-07T11:18:47;7.25;;;2.25;;
52494;SDS011;38405;53.212;5.660;2022-12-07T11:21:31;11.60;;;2.45;;
52494;SDS011;38405;53.212;5.660;2022-12-07T11:24:15;7.03;;;1.48;;
52494;SDS011;38405;53.212;5.660;2022-12-07T11:38:14;6.55;;;1.50;;
52494;SDS011;38405;53.212;5.660;2022-12-07T11:40:46;7.15;;;1.60;;
52494;SDS011;38405;53.212;5.660;2022-12-07T11:43:27;6.13;;;0.90;;
52494;SDS011;38405;53.212;5.660;2022-12-07T11:45:59;3.47;;;0.90;;
52494;SDS011;38405;53.212;5.660;2022-12-07T11:48:37;4.32;;;1.00;;
52494;SDS011;38405;53.212;5.660;2022-12-07T11:51:06;5.60;;;1.00;;
52494;SDS011;38405;53.212;5.660;2022-12-07T11:53:39;3.55;;;0.70;;
52494;SDS011;38405;53.212;5.660;2022-12-07T12:06:27;6.43;;;1.40;;
52494;SDS011;38405;53.212;5.660;2022-12-07T12:20:29;4.85;;;1.40;;
52494;SDS011;38405;53.212;5.660;2022-12-07T12:23:06;9.70;;;2.22;;
52494;SDS011;38405;53.212;5.660;2022-12-07T12:28:42;7.25;;;1.75;;
52494;SDS011;38405;53.212;5.660;2022-12-07T12:49:40;1.80;;;0.88;;
52494;SDS011;38405;53.212;5.660;2022-12-07T12:54:57;6.72;;;2.20;;
52494;SDS011;38405;53.212;5.660;2022-12-07T12:57:37;12.40;;;7.30;;
52494;SDS011;38405;53.212;5.660;2022-12-07T13:02:50;48.42;;;27.10;;
52494;SDS011;38405;53.212;5.660;2022-12-07T13:05:19;32.78;;;19.75;;
52494;SDS011;38405;53.212;5.660;2022-12-07T13:18:23;18.80;;;9.63;;
52494;SDS011;38405;53.212;5.660;2022-12-07T13:21:01;13.00;;;5.68;;
52494;SDS011;38405;53.212;5.660;2022-12-07T13:23:37;13.90;;;5.28;;
52494;SDS011;38405;53.212;5.660;2022-12-07T13:26:06;11.68;;;5.30;;
52494;SDS011;38405;53.212;5.660;2022-12-07T13:28:47;4.05;;;2.65;;
52494;SDS011;38405;53.212;5.660;2022-12-07T13:31:34;10.98;;;6.75;;
52494;SDS011;38405;53.212;5.660;2022-12-07T13:34:04;4.32;;;2.58;;
52494;SDS011;38405;53.212;5.660;2022-12-07T13:36:50;3.10;;;2.08;;
52494;SDS011;38405;53.212;5.660;2022-12-07T13:39:20;3.90;;;1.20;;
52494;SDS011;38405;53.212;5.660;2022-12-07T13:41:52;7.82;;;3.90;;
52494;SDS011;38405;53.212;5.660;2022-12-07T13:44:22;19.45;;;9.88;;
52494;SDS011;38405;53.212;5.660;2022-12-07T13:49:55;12.23;;;1.85;;
52494;SDS011;38405;53.212;5.660;2022-12-07T13:52:25;10.23;;;1.38;;
52494;SDS011;38405;53.212;5.660;2022-12-07T13:55:01;3.17;;;0.73;;
52494;SDS011;38405;53.212;5.660;2022-12-07T13:57:30;3.20;;;0.90;;
52494;SDS011;38405;53.212;5.660;2022-12-07T13:59:59;1.05;;;0.50;;
52494;SDS011;38405;53.212;5.660;2022-12-07T14:02:33;3.33;;;0.73;;
52494;SDS011;38405;53.212;5.660;2022-12-07T14:05:10;1.45;;;0.80;;
52494;SDS011;38405;53.212;5.660;2022-12-07T14:07:53;2.95;;;0.80;;
52494;SDS011;38405;53.212;5.660;2022-12-07T14:10:32;6.70;;;1.10;;
52494;SDS011;38405;53.212;5.660;2022-12-07T14:13:01;6.15;;;0.85;;
52494;SDS011;38405;53.212;5.660;2022-12-07T14:15:32;6.53;;;0.85;;
52494;SDS011;38405;53.212;5.660;2022-12-07T14:18:00;5.97;;;0.98;;
52494;SDS011;38405;53.212;5.660;2022-12-07T14:20:38;6.40;;;1.05;;
52494;SDS011;38405;53.212;5.660;2022-12-07T14:23:19;6.47;;;0.70;;
52494;SDS011;38405;53.212;5.660;2022-12-07T14:25:51;3.55;;;1.02;;
52494;SDS011;38405;53.212;5.660;2022-12-07T14:28:25;2.28;;;1.00;;
52494;SDS011;38405;53.212;5.660;2022-12-07T14:30:52;7.25;;;1.10;;
52494;SDS011;38405;53.212;5.660;2022-12-07T14:33:18;2.40;;;0.80;;
52494;SDS011;38405;53.212;5.660;2022-12-07T14:35:44;7.32;;;1.08;;
52494;SDS011;38405;53.212;5.660;2022-12-07T14:38:10;2.50;;;1.10;;
52494;SDS011;38405;53.212;5.660;2022-12-07T14:40:35;5.55;;;1.10;;
52494;SDS011;38405;53.212;5.660;2022-12-07T14:43:05;5.32;;;1.30;;
52494;SDS011;38405;53.212;5.660;2022-12-07T14:45:35;5.28;;;1.40;;
52494;SDS011;38405;53.212;5.660;2022-12-07T14:48:01;5.05;;;1.20;;
52494;SDS011;38405;53.212;5.660;2022-12-07T14:50:27;20.02;;;12.07;;
52494;SDS011;38405;53.212;5.660;2022-12-07T14:52:56;23.48;;;13.93;;
52494;SDS011;38405;53.212;5.660;2022-12-07T14:55:30;41.45;;;17.42;;
52494;SDS011;38405;53.212;5.660;2022-12-07T14:57:56;19.80;;;7.32;;
52494;SDS011;38405;53.212;5.660;2022-12-07T15:00:29;27.58;;;13.10;;
52494;SDS011;38405;53.212;5.660;2022-12-07T15:02:55;12.02;;;3.45;;
52494;SDS011;38405;53.212;5.660;2022-12-07T15:05:21;11.77;;;5.05;;
52494;SDS011;38405;53.212;5.660;2022-12-07T15:07:47;14.00;;;6.03;;
52494;SDS011;38405;53.212;5.660;2022-12-07T15:10:16;4.20;;;2.22;;
52494;SDS011;38405;53.212;5.660;2022-12-07T15:12:44;6.18;;;1.27;;
52494;SDS011;38405;53.212;5.660;2022-12-07T15:15:09;9.00;;;2.10;;
52494;SDS011;38405;53.212;5.660;2022-12-07T15:17:35;5.97;;;3.22;;
52494;SDS011;38405;53.212;5.660;2022-12-07T15:20:01;7.65;;;4.45;;
52494;SDS011;38405;53.212;5.660;2022-12-07T15:22:27;11.25;;;5.07;;
52494;SDS011;38405;53.212;5.660;2022-12-07T15:24:54;21.17;;;8.60;;
52494;SDS011;38405;53.212;5.660;2022-12-07T15:27:20;17.27;;;7.63;;
52494;SDS011;38405;53.212;5.660;2022-12-07T15:29:46;16.98;;;7.60;;
52494;SDS011;38405;53.212;5.660;2022-12-07T15:32:11;13.80;;;8.00;;
52494;SDS011;38405;53.212;5.660;2022-12-07T15:34:37;9.73;;;5.90;;
52494;SDS011;38405;53.212;5.660;2022-12-07T15:37:03;8.75;;;2.95;;
52494;SDS011;38405;53.212;5.660;2022-12-07T15:39:29;7.53;;;2.60;;
52494;SDS011;38405;53.212;5.660;2022-12-07T15:41:55;6.18;;;1.42;;
52494;SDS011;38405;53.212;5.660;2022-12-07T15:44:21;3.80;;;0.80;;
52494;SDS011;38405;53.212;5.660;2022-12-07T15:47:05;5.13;;;0.80;;
52494;SDS011;38405;53.212;5.660;2022-12-07T15:49:31;6.60;;;0.73;;
52494;SDS011;38405;53.212;5.660;2022-12-07T15:51:57;14.65;;;1.23;;
52494;SDS011;38405;53.212;5.660;2022-12-07T15:54:24;2.40;;;0.75;;
52494;SDS011;38405;53.212;5.660;2022-12-07T15:56:51;8.23;;;0.90;;
52494;SDS011;38405;53.212;5.660;2022-12-07T15:59:17;6.47;;;1.17;;
52494;SDS011;38405;53.212;5.660;2022-12-07T16:01:46;4.07;;;1.05;;
52494;SDS011;38405;53.212;5.660;2022-12-07T16:04:11;3.33;;;1.27;;
52494;SDS011;38405;53.212;5.660;2022-12-07T16:06:37;7.93;;;1.23;;
52494;SDS011;38405;53.212;5.660;2022-12-07T16:09:04;10.52;;;1.40;;
52494;SDS011;38405;53.212;5.660;2022-12-07T16:11:30;12.48;;;1.48;;
52494;SDS011;38405;53.212;5.660;2022-12-07T16:13:56;11.20;;;1.70;;
52494;SDS011;38405;53.212;5.660;2022-12-07T16:16:22;6.75;;;1.70;;
52494;SDS011;38405;53.212;5.660;2022-12-07T16:18:48;11.15;;;2.10;;
52494;SDS011;38405;53.212;5.660;2022-12-07T16:21:15;6.72;;;1.50;;
52494;SDS011;38405;53.212;5.660;2022-12-07T16:23:42;7.60;;;1.40;;
52494;SDS011;38405;53.212;5.660;2022-12-07T16:26:17;7.05;;;1.40;;
52494;SDS011;38405;53.212;5.660;2022-12-07T16:28:44;7.80;;;1.65;;
52494;SDS011;38405;53.212;5.660;2022-12-07T16:31:14;8.77;;;1.90;;
52494;SDS011;38405;53.212;5.660;2022-12-07T16:33:42;9.35;;;1.70;;
52494;SDS011;38405;53.212;5.660;2022-12-07T16:36:08;6.80;;;1.42;;
52494;SDS011;38405;53.212;5.660;2022-12-07T16:38:36;8.88;;;1.45;;
52494;SDS011;38405;53.212;5.660;2022-12-07T16:41:03;9.02;;;1.35;;
52494;SDS011;38405;53.212;5.660;2022-12-07T16:43:30;8.23;;;1.10;;
52494;SDS011;38405;53.212;5.660;2022-12-07T16:45:55;6.53;;;1.35;;
52494;SDS011;38405;53.212;5.660;2022-12-07T16:48:21;8.75;;;1.50;;
52494;SDS011;38405;53.212;5.660;2022-12-07T16:50:47;5.85;;;1.00;;
52494;SDS011;38405;53.212;5.660;2022-12-07T16:53:13;6.78;;;1.15;;
52494;SDS011;38405;53.212;5.660;2022-12-07T16:55:41;9.85;;;2.80;;
52494;SDS011;38405;53.212;5.660;2022-12-07T16:58:08;8.68;;;2.60;;
52494;SDS011;38405;53.212;5.660;2022-12-07T17:00:35;8.30;;;2.75;;
52494;SDS011;38405;53.212;5.660;2022-12-07T17:03:02;10.80;;;3.08;;
52494;SDS011;38405;53.212;5.660;2022-12-07T17:05:28;17.20;;;4.72;;